Flight Track Log - Related Links

Times and Time Zones

All times are in EDT time to prevent confusion due to time zone crossing. See the N28295 flight status page for this flight to view local times or setup timezone preferences in your user account.

Time Position Orientation Groundspeed Altitude Reporting Facility
EDT Latitude Longitude Course Direction KTS MPH feet Rate Location/Type
Thu 07:22:55 AM 39.9819 -78.9058 121° Southeast 85 98 5,300  Level Cleveland Center
Thu 07:23:56 AM 39.9669 -78.8767 124° Southeast 91 105 5,500 99 Climbing Cleveland Center
Thu 07:24:56 AM 39.9497 -78.8417 123° Southeast 107 123 5,500  Level Cleveland Center
Thu 07:25:57 AM 39.9386 -78.8094 114° Southeast 103 119 5,500  Level Cleveland Center
Thu 07:26:58 AM 39.9236 -78.7775 121° Southeast 106 122 5,500  Level Cleveland Center
Thu 07:27:58 AM 39.9086 -78.7456 121° Southeast 105 121 5,500  Level Cleveland Center
Thu 07:28:00 AM 39.9285 -78.7743 121° Southeast  Level Estimated
Thu 07:28:59 AM 39.8914 -78.7108 123° Southeast 107 123 5,500  Level Cleveland Center
Thu 07:29:59 AM 39.8781 -78.6758 116° Southeast 108 124 5,500 -38 Level Cleveland Center
Thu 07:31:35 AM 39.8508 -78.6158 121° Southeast 119 137 5,400  Descending Washington Center
Thu 07:32:35 AM 39.8350 -78.5800 120° Southeast 119 137 5,500 50 Climbing Washington Center
Thu 07:33:35 AM 39.8172 -78.5442 123° Southeast 119 137 5,500  Level Washington Center
Thu 07:34:34 AM 39.8014 -78.5111 122° Southeast 119 137 5,500  Level Washington Center
Thu 07:35:35 AM 39.7833 -78.4753 123° Southeast 119 137 5,500  Level Washington Center
Thu 07:36:36 AM 39.7697 -78.4422 118° Southeast 119 137 5,500  Level Washington Center
Thu 07:37:34 AM 39.7517 -78.4064 123° Southeast 119 137 5,500  Level Washington Center
Thu 07:38:36 AM 39.7339 -78.3708 123° Southeast 119 137 5,500  Level Washington Center
Thu 07:39:34 AM 39.7200 -78.3350 117° Southeast 119 137 5,500 51 Level Washington Center
Thu 07:40:34 AM 39.7042 -78.3022 122° Southeast 119 137 5,600  Climbing Washington Center
Thu 07:41:35 AM 39.6883 -78.2664 120° Southeast 119 137 5,500 -49 Descending Washington Center
Thu 07:42:36 AM 39.6722 -78.2336 123° Southeast 119 137 5,500  Level Washington Center
Thu 07:43:34 AM 39.6564 -78.1978 120° Southeast 113 130 5,500 -555 Level Washington Center
Thu 07:44:35 AM 39.6406 -78.1597 118° Southeast 113 130 4,400 -992 Descending Washington Center
Thu 07:45:35 AM 39.6225 -78.1211 121° Southeast 118 136 3,500 -450 Descending Washington Center
Thu 07:46:35 AM 39.6044 -78.0911 128° Southeast 123 142 3,500  Level Washington Center
Thu 07:47:36 AM 39.5886 -78.0556 120° Southeast 118 136 3,500  Level Washington Center
Thu 07:48:36 AM 39.5706 -78.0172 121° Southeast 118 136 3,500  Level Washington Center
Thu 07:49:33 AM 39.5544 -77.9817 120° Southeast 118 136 3,500  Level Washington Center
Thu 07:50:34 AM 39.5386 -77.9461 120° Southeast 118 136 3,500  Level Washington Center
Thu 07:51:34 AM 39.5206 -77.9106 123° Southeast 123 142 3,500  Level Washington Center
Thu 07:52:36 AM 39.5025 -77.8750 123° Southeast 123 142 3,500  Level Washington Center
Thu 07:54:48 AM 39.4667 -77.7833 117° Southeast 118 136 3,500  Level Potomac TRACON
Thu 07:55:48 AM 39.4500 -77.7500 123° Southeast 119 137 3,500  Level Potomac TRACON
Thu 07:56:42 AM 39.4333 -77.7167 123° Southeast 120 138 3,500  Level Potomac TRACON
Thu 07:57:42 AM 39.4167 -77.6833 123° Southeast 121 139 3,500  Level Potomac TRACON
Thu 07:58:42 AM 39.4000 -77.6500 123° Southeast 122 140 3,500  Level Potomac TRACON
Thu 07:59:36 AM 39.3833 -77.6167 123° Southeast 119 137 3,500 -316 Level Potomac TRACON
Thu 08:00:36 AM 39.3667 -77.5833 123° Southeast 122 140 2,900 -579 Descending Potomac TRACON
Thu 08:01:30 AM 39.3500 -77.5500 123° Southeast 126 145 2,400 -661 Descending Potomac TRACON
Thu 08:02:25 AM 39.3333 -77.5167 123° Southeast 125 144 1,700 -470 Descending Potomac TRACON
Thu 08:03:25 AM 39.3167 -77.4667 113° Southeast 125 144 1,500 -100 Descending Potomac TRACON
Thu 08:04:25 AM 39.3000 -77.4333 123° Southeast 128 147 1,500  Level Potomac TRACON
Thu 08:05:20 AM 39.2833 -77.4000 123° Southeast 129 148 1,500 52 Level Potomac TRACON
Thu 08:06:20 AM 39.2667 -77.3667 123° Southeast 129 148 1,600 350 Climbing Potomac TRACON
Thu 08:07:20 AM 39.2500 -77.3333 123° Southeast 118 136 2,200 400 Climbing Potomac TRACON
Thu 08:08:20 AM 39.2333 -77.3000 123° Southeast 126 145 2,400 100 Climbing Potomac TRACON
Thu 08:09:20 AM 39.2500 -77.2667 57° Northeast 154 177 2,400  Level Potomac TRACON
Thu 08:10:20 AM 39.2500 -77.3167 270° West 159 183 2,400 150 Level Potomac TRACON
Thu 08:11:20 AM 39.2667 -77.3667 293° West 144 166 2,700 500 Climbing Potomac TRACON
Thu 08:12:20 AM 39.2667 -77.4167 270° West 126 145 3,400 645 Climbing Potomac TRACON
Thu 08:13:21 AM 39.2500 -77.4500 237° Southwest 106 122 4,000 298 Climbing Potomac TRACON
Thu 08:14:21 AM 39.2833 -77.4833 322° Northwest 136 157 4,000  Level Potomac TRACON
Thu 08:15:21 AM 39.3167 -77.5000 339° North 140 161 4,000  Level Potomac TRACON
Thu 08:16:21 AM 39.3500 -77.5000 360° North 143 165 4,000  Level Potomac TRACON
Thu 08:17:21 AM 39.3833 -77.4833 21° North 130 150 4,000  Level Potomac TRACON
Thu 08:18:21 AM 39.4000 -77.4667 38° Northeast 123 142 4,000  Level Potomac TRACON
Thu 08:19:21 AM 39.3833 -77.4333 123° Southeast 149 171 4,000 -350 Level Potomac TRACON
Thu 08:20:21 AM 39.3500 -77.4167 159° South 125 144 3,300 -450 Descending Potomac TRACON
Thu 08:21:21 AM 39.3167 -77.3833 142° Southeast 123 142 3,100 -100 Descending Potomac TRACON
Thu 08:22:21 AM 39.2833 -77.3667 159° South 122 140 3,100 -50 Level Potomac TRACON
Thu 08:23:21 AM 39.2667 -77.3333 123° Southeast 124 143 3,000 -347 Descending Potomac TRACON
Thu 08:24:22 AM 39.2500 -77.3000 123° Southeast 126 145 2,400 -397 Descending Potomac TRACON
Thu 08:25:22 AM 39.2333 -77.2667 123° Southeast 129 148 2,200 -350 Descending Potomac TRACON
Thu 08:26:22 AM 39.2167 -77.2333 123° Southeast 106 122 1,700 -550 Descending Potomac TRACON
Thu 08:27:22 AM 39.2000 -77.2167 142° Southeast 98 113 1,100 -600 Descending Potomac TRACON

Login

Don't have an account? Register now (free) for customized features, flight alerts, and more!